Time;durP1;ratioP1;P1;durP2;ratioP2;P2;SDS_P1;SDS_P2;PMS_P1;PMS_P2;Temp;Humidity;BMP_temperature;BMP_pressure;BME280_temperature;BME280_humidity;BME280_pressure;Samples;Min_cycle;Max_cycle;Signal;HPM_P1;HPM_P2
2024/01/22 00:01:53;;;;;;;5.10;2.30;;;;;;;;;;6271914;22;20015;-85
2024/01/22 00:04:38;;;;;;;6.65;2.75;;;;;;;;;;6271974;22;20007;-86
2024/01/22 00:07:24;;;;;;;5.38;2.40;;;;;;;;;;6271108;22;20000;-87
2024/01/22 00:10:09;;;;;;;5.10;2.65;;;;;;;;;;6266319;22;20065;-86
2024/01/22 00:12:54;;;;;;;3.67;1.98;;;;;;;;;;6265876;22;20023;-83
2024/01/22 00:15:40;;;;;;;4.72;2.30;;;;;;;;;;6268436;22;20021;-85
2024/01/22 00:18:25;;;;;;;4.38;2.28;;;;;;;;;;6268899;22;20003;-84
2024/01/22 00:21:10;;;;;;;5.18;2.35;;;;;;;;;;6267009;22;20010;-83
2024/01/22 00:23:56;;;;;;;6.70;2.28;;;;;;;;;;6267409;22;20332;-84
2024/01/22 00:26:41;;;;;;;3.40;1.92;;;;;;;;;;6267446;22;20003;-85
2024/01/22 00:29:27;;;;;;;7.13;2.30;;;;;;;;;;6270191;22;20007;-87
2024/01/22 00:32:12;;;;;;;7.63;1.95;;;;;;;;;;6271954;22;20196;-85
2024/01/22 00:34:57;;;;;;;7.15;2.80;;;;;;;;;;6273851;22;20003;-86
2024/01/22 00:37:43;;;;;;;8.75;2.70;;;;;;;;;;6271436;22;20006;-86
2024/01/22 00:40:28;;;;;;;4.72;2.47;;;;;;;;;;6272917;22;20152;-88
2024/01/22 00:43:13;;;;;;;4.47;2.47;;;;;;;;;;6251908;22;19995;-85
2024/01/22 00:46:00;;;;;;;5.28;2.40;;;;;;;;;;6273248;22;19995;-86
2024/01/22 00:48:45;;;;;;;3.90;2.08;;;;;;;;;;6293549;22;20011;-85
2024/01/22 00:51:31;;;;;;;5.80;2.28;;;;;;;;;;6270446;22;20003;-86
2024/01/22 00:54:16;;;;;;;4.10;2.08;;;;;;;;;;6266135;22;20512;-86
2024/01/22 00:57:01;;;;;;;5.15;2.10;;;;;;;;;;6267546;22;20424;-86
2024/01/22 00:59:46;;;;;;;5.72;2.40;;;;;;;;;;6288970;22;20066;-86
2024/01/22 01:02:31;;;;;;;4.43;2.30;;;;;;;;;;6288076;22;19995;-86
2024/01/22 01:05:17;;;;;;;7.10;3.33;;;;;;;;;;6266104;22;20011;-85
2024/01/22 01:08:02;;;;;;;8.57;3.75;;;;;;;;;;6272786;22;20003;-86
2024/01/22 01:10:47;;;;;;;4.72;2.17;;;;;;;;;;6250668;22;20007;-86
2024/01/22 01:13:33;;;;;;;7.57;3.30;;;;;;;;;;6269997;22;20061;-84
2024/01/22 01:16:18;;;;;;;5.80;2.80;;;;;;;;;;6272475;22;19999;-84
2024/01/22 01:19:03;;;;;;;6.13;2.53;;;;;;;;;;6272270;22;20074;-83
2024/01/22 01:21:48;;;;;;;6.95;2.88;;;;;;;;;;6271071;22;20002;-82
2024/01/22 01:24:34;;;;;;;6.95;2.50;;;;;;;;;;6270364;22;20013;-82
2024/01/22 01:27:19;;;;;;;6.30;2.00;;;;;;;;;;6251330;22;20010;-83
2024/01/22 01:30:04;;;;;;;5.82;2.50;;;;;;;;;;6273371;22;20436;-82
2024/01/22 01:32:49;;;;;;;6.03;2.67;;;;;;;;;;6270371;22;20003;-82
2024/01/22 01:35:35;;;;;;;6.65;2.72;;;;;;;;;;6265998;22;20038;-85
2024/01/22 01:38:22;;;;;;;8.57;3.20;;;;;;;;;;6268041;22;20488;-83
2024/01/22 01:41:08;;;;;;;6.95;2.63;;;;;;;;;;6268106;22;20038;-83
2024/01/22 01:43:53;;;;;;;6.45;2.13;;;;;;;;;;6265909;22;20444;-84
2024/01/22 01:46:38;;;;;;;3.45;2.05;;;;;;;;;;6271413;22;19999;-84
2024/01/22 01:49:23;;;;;;;3.35;1.90;;;;;;;;;;6269558;22;20025;-82
2024/01/22 01:52:10;;;;;;;4.25;2.35;;;;;;;;;;6273057;22;20378;-84
2024/01/22 01:54:55;;;;;;;4.10;1.98;;;;;;;;;;6273472;22;19995;-85
2024/01/22 01:57:41;;;;;;;4.88;2.15;;;;;;;;;;6270093;22;20002;-83
2024/01/22 02:00:27;;;;;;;4.18;2.08;;;;;;;;;;6293959;22;20407;-84
2024/01/22 02:03:12;;;;;;;5.15;1.73;;;;;;;;;;6271416;22;20003;-83
2024/01/22 02:05:57;;;;;;;7.70;2.20;;;;;;;;;;6272714;22;20493;-84
2024/01/22 02:08:52;;;;;;;9.30;2.67;;;;;;;;;;6270003;22;20030;-84
2024/01/22 02:11:37;;;;;;;5.20;2.20;;;;;;;;;;6287342;22;20047;-84
2024/01/22 02:14:22;;;;;;;6.25;2.42;;;;;;;;;;6267703;22;20070;-83
2024/01/22 02:17:07;;;;;;;7.45;2.78;;;;;;;;;;6267329;22;20425;-84
2024/01/22 02:19:53;;;;;;;3.47;1.98;;;;;;;;;;6265184;22;20010;-84
2024/01/22 02:22:38;;;;;;;6.07;1.85;;;;;;;;;;6264861;22;19996;-84
2024/01/22 02:25:23;;;;;;;4.97;2.55;;;;;;;;;;6286653;22;20055;-85
2024/01/22 02:28:11;;;;;;;5.57;2.95;;;;;;;;;;6299590;22;19995;-85
2024/01/22 02:30:56;;;;;;;7.88;2.05;;;;;;;;;;6300952;22;20030;-85
2024/01/22 02:33:44;;;;;;;3.70;1.92;;;;;;;;;;6302199;22;20041;-85
2024/01/22 02:36:29;;;;;;;4.80;2.45;;;;;;;;;;6300207;22;19995;-84
2024/01/22 02:39:15;;;;;;;5.40;1.73;;;;;;;;;;6297325;22;19999;-86
2024/01/22 02:42:00;;;;;;;9.32;3.05;;;;;;;;;;6275279;22;20049;-86
2024/01/22 02:44:45;;;;;;;5.88;2.25;;;;;;;;;;6272690;22;20034;-86
2024/01/22 02:47:31;;;;;;;5.88;2.00;;;;;;;;;;6272466;22;20074;-83
2024/01/22 02:50:16;;;;;;;6.65;2.10;;;;;;;;;;6272384;22;20440;-85
2024/01/22 02:53:01;;;;;;;3.63;2.20;;;;;;;;;;6272463;22;20000;-85
2024/01/22 02:55:46;;;;;;;7.72;2.45;;;;;;;;;;6267025;22;20006;-85
2024/01/22 02:58:31;;;;;;;4.53;2.00;;;;;;;;;;6269867;22;20003;-84
2024/01/22 03:01:17;;;;;;;5.13;2.67;;;;;;;;;;6268065;22;19999;-85
2024/01/22 03:04:02;;;;;;;3.47;1.90;;;;;;;;;;6272854;22;20086;-84
2024/01/22 03:06:47;;;;;;;6.00;2.42;;;;;;;;;;6275526;22;20033;-85
2024/01/22 03:09:32;;;;;;;3.97;2.72;;;;;;;;;;6273508;22;20428;-83
2024/01/22 03:12:18;;;;;;;5.60;2.38;;;;;;;;;;6276947;22;20011;-84
2024/01/22 03:15:03;;;;;;;4.75;2.10;;;;;;;;;;6277044;22;19995;-86
2024/01/22 03:17:48;;;;;;;7.00;2.63;;;;;;;;;;6274797;22;20052;-85
2024/01/22 03:20:34;;;;;;;6.40;2.40;;;;;;;;;;6275244;22;19999;-86
2024/01/22 03:23:19;;;;;;;5.38;2.28;;;;;;;;;;6277466;22;20079;-85
2024/01/22 03:26:04;;;;;;;5.22;2.13;;;;;;;;;;6272521;22;20656;-85
2024/01/22 03:28:50;;;;;;;5.82;3.00;;;;;;;;;;6270086;22;20090;-85
2024/01/22 03:31:37;;;;;;;4.25;2.20;;;;;;;;;;6270371;22;20029;-84
2024/01/22 03:34:22;;;;;;;6.82;2.33;;;;;;;;;;6270598;22;20003;-85
2024/01/22 03:37:08;;;;;;;4.60;2.00;;;;;;;;;;6271284;22;20133;-85
2024/01/22 03:39:53;;;;;;;5.13;2.30;;;;;;;;;;6270683;22;20025;-86
2024/01/22 03:42:38;;;;;;;8.00;3.65;;;;;;;;;;6277053;22;19999;-83
2024/01/22 03:45:23;;;;;;;3.97;2.17;;;;;;;;;;6275154;22;20002;-83
2024/01/22 03:48:09;;;;;;;4.78;2.55;;;;;;;;;;6277442;22;20002;-83
2024/01/22 03:50:54;;;;;;;7.25;2.47;;;;;;;;;;6277241;22;19999;-83
2024/01/22 03:53:39;;;;;;;5.60;2.33;;;;;;;;;;6274209;22;19999;-81
2024/01/22 03:56:24;;;;;;;4.68;2.28;;;;;;;;;;6277157;22;20070;-81
2024/01/22 03:59:10;;;;;;;6.10;2.90;;;;;;;;;;6276774;22;20004;-86
2024/01/22 04:01:55;;;;;;;4.72;2.28;;;;;;;;;;6274818;22;19999;-84
2024/01/22 04:04:41;;;;;;;4.20;1.75;;;;;;;;;;6247056;22;20007;-84
2024/01/22 04:07:27;;;;;;;7.63;2.65;;;;;;;;;;6269606;22;20456;-85
2024/01/22 04:10:12;;;;;;;6.82;2.25;;;;;;;;;;6267313;22;20519;-84
2024/01/22 04:12:57;;;;;;;6.72;3.50;;;;;;;;;;6269619;22;20011;-86
2024/01/22 04:15:42;;;;;;;6.63;2.63;;;;;;;;;;6271478;22;19999;-84
2024/01/22 04:18:27;;;;;;;7.75;2.47;;;;;;;;;;6272275;22;20347;-85
2024/01/22 04:21:13;;;;;;;5.63;2.92;;;;;;;;;;6273897;22;20070;-84
2024/01/22 04:23:58;;;;;;;7.03;3.33;;;;;;;;;;6273202;22;20502;-83
2024/01/22 04:26:43;;;;;;;9.45;2.33;;;;;;;;;;6271335;22;20006;-84
2024/01/22 04:29:32;;;;;;;4.75;2.30;;;;;;;;;;6272795;22;20027;-86
2024/01/22 04:32:17;;;;;;;5.45;2.67;;;;;;;;;;6273233;22;19991;-86
2024/01/22 04:35:04;;;;;;;3.70;2.30;;;;;;;;;;6270634;22;20003;-85
2024/01/22 04:37:49;;;;;;;4.43;2.47;;;;;;;;;;6245331;22;20007;-84
2024/01/22 04:40:34;;;;;;;6.70;2.97;;;;;;;;;;6266515;22;20007;-86
2024/01/22 04:43:21;;;;;;;8.65;3.40;;;;;;;;;;6268882;22;20013;-84
2024/01/22 04:46:09;;;;;;;7.18;2.60;;;;;;;;;;6251943;22;19995;-86
2024/01/22 04:48:54;;;;;;;5.00;2.58;;;;;;;;;;6269937;22;20023;-85
2024/01/22 04:51:43;;;;;;;4.10;2.35;;;;;;;;;;6270739;22;20074;-85
2024/01/22 04:54:28;;;;;;;5.10;2.38;;;;;;;;;;6272552;22;20003;-86
2024/01/22 04:57:13;;;;;;;5.43;2.38;;;;;;;;;;6274081;22;20006;-85
2024/01/22 04:59:58;;;;;;;8.05;2.35;;;;;;;;;;6273142;22;19995;-86
2024/01/22 05:02:44;;;;;;;3.67;2.20;;;;;;;;;;6271609;22;20121;-85
2024/01/22 05:05:29;;;;;;;6.88;2.83;;;;;;;;;;6269035;22;19999;-84
2024/01/22 05:08:14;;;;;;;5.45;2.65;;;;;;;;;;6273116;22;20513;-85
2024/01/22 05:10:59;;;;;;;4.55;2.25;;;;;;;;;;6272915;22;20015;-85
2024/01/22 05:13:52;;;;;;;4.90;2.30;;;;;;;;;;6270383;22;19999;-84
2024/01/22 05:16:37;;;;;;;5.22;2.03;;;;;;;;;;6270978;22;19992;-83
2024/01/22 05:19:22;;;;;;;3.38;1.92;;;;;;;;;;6273372;22;20007;-86
2024/01/22 05:22:08;;;;;;;7.22;2.35;;;;;;;;;;6273973;22;19999;-87
2024/01/22 05:24:56;;;;;;;7.18;2.40;;;;;;;;;;6271506;22;20028;-86
2024/01/22 05:27:44;;;;;;;5.82;2.58;;;;;;;;;;6272286;22;20007;-85
2024/01/22 05:30:29;;;;;;;6.57;2.80;;;;;;;;;;6273229;22;19996;-86
2024/01/22 05:33:14;;;;;;;6.93;3.08;;;;;;;;;;6272660;22;20010;-86
2024/01/22 05:36:00;;;;;;;6.28;2.92;;;;;;;;;;6266521;22;19999;-84
2024/01/22 05:38:45;;;;;;;6.15;2.72;;;;;;;;;;6245155;22;20006;-84
2024/01/22 05:41:31;;;;;;;5.53;2.55;;;;;;;;;;6267462;22;20035;-86
2024/01/22 05:44:16;;;;;;;9.20;2.85;;;;;;;;;;6266610;22;20009;-85
2024/01/22 05:47:01;;;;;;;6.05;2.75;;;;;;;;;;6269358;22;20066;-85
2024/01/22 05:49:46;;;;;;;8.20;3.42;;;;;;;;;;6272434;22;20011;-84
2024/01/22 05:52:32;;;;;;;5.15;2.60;;;;;;;;;;6270154;22;20014;-84
2024/01/22 05:55:17;;;;;;;7.63;3.13;;;;;;;;;;6271421;22;19999;-84
2024/01/22 05:58:03;;;;;;;5.32;2.78;;;;;;;;;;6272898;22;20038;-84
2024/01/22 06:00:48;;;;;;;6.68;3.15;;;;;;;;;;6270050;22;19995;-86
2024/01/22 06:03:34;;;;;;;5.32;2.65;;;;;;;;;;6271067;22;20006;-84
2024/01/22 06:06:19;;;;;;;5.70;2.63;;;;;;;;;;6271911;22;20079;-85
2024/01/22 06:09:06;;;;;;;7.75;2.80;;;;;;;;;;6269438;22;20010;-86
2024/01/22 06:11:51;;;;;;;5.38;2.40;;;;;;;;;;6264731;22;20378;-84
2024/01/22 06:14:36;;;;;;;5.20;2.97;;;;;;;;;;6266517;22;19995;-84
2024/01/22 06:17:21;;;;;;;6.05;2.30;;;;;;;;;;6265419;22;20022;-82
2024/01/22 06:20:09;;;;;;;5.55;2.55;;;;;;;;;;6270245;22;20002;-84
2024/01/22 06:22:54;;;;;;;6.22;2.45;;;;;;;;;;6272852;22;20000;-83
2024/01/22 06:25:39;;;;;;;6.60;2.88;;;;;;;;;;6271755;22;20006;-83
2024/01/22 06:28:25;;;;;;;7.82;3.28;;;;;;;;;;6273415;22;20003;-84
2024/01/22 06:31:10;;;;;;;3.70;2.45;;;;;;;;;;6272969;22;20078;-85
2024/01/22 06:33:56;;;;;;;10.50;3.05;;;;;;;;;;6274187;22;19995;-86
2024/01/22 06:36:41;;;;;;;6.15;2.70;;;;;;;;;;6268950;22;19999;-83
2024/01/22 06:39:27;;;;;;;12.75;4.28;;;;;;;;;;6267003;22;20003;-84
2024/01/22 06:42:12;;;;;;;6.32;3.75;;;;;;;;;;6266357;22;19999;-83
2024/01/22 06:45:00;;;;;;;7.15;3.15;;;;;;;;;;6269111;22;20033;-85
2024/01/22 06:47:45;;;;;;;10.82;4.00;;;;;;;;;;6266219;22;20003;-82
2024/01/22 06:50:30;;;;;;;8.63;3.30;;;;;;;;;;6270213;22;20003;-85
2024/01/22 06:53:16;;;;;;;5.50;2.58;;;;;;;;;;6273191;22;20092;-85
2024/01/22 06:56:01;;;;;;;11.35;3.30;;;;;;;;;;6269897;22;20125;-85
2024/01/22 06:58:47;;;;;;;5.00;2.42;;;;;;;;;;6263357;22;20026;-87
2024/01/22 07:01:32;;;;;;;6.10;2.78;;;;;;;;;;6266210;22;20003;-86
2024/01/22 07:04:17;;;;;;;4.40;2.28;;;;;;;;;;6269112;22;19999;-82
2024/01/22 07:07:03;;;;;;;6.00;2.45;;;;;;;;;;6271303;22;20391;-82
2024/01/22 07:09:49;;;;;;;4.25;2.35;;;;;;;;;;6268078;22;20004;-82
2024/01/22 07:12:35;;;;;;;5.82;2.80;;;;;;;;;;6269046;22;20011;-82
2024/01/22 07:15:20;;;;;;;4.95;2.47;;;;;;;;;;6269112;22;20031;-82
2024/01/22 07:18:05;;;;;;;6.45;2.63;;;;;;;;;;6264208;22;20031;-82
2024/01/22 07:20:52;;;;;;;7.50;3.42;;;;;;;;;;6265122;22;20341;-82
2024/01/22 07:23:38;;;;;;;5.22;2.83;;;;;;;;;;6265403;22;20070;-83
2024/01/22 07:26:24;;;;;;;5.05;2.55;;;;;;;;;;6264680;22;20026;-82
2024/01/22 07:29:09;;;;;;;4.47;2.15;;;;;;;;;;6266427;22;20007;-82
2024/01/22 07:31:54;;;;;;;7.50;2.75;;;;;;;;;;6267116;22;20413;-83
2024/01/22 07:34:39;;;;;;;7.78;2.92;;;;;;;;;;6272020;22;19995;-82
2024/01/22 07:37:25;;;;;;;7.10;2.78;;;;;;;;;;6268904;22;20258;-83
2024/01/22 07:40:10;;;;;;;6.25;2.75;;;;;;;;;;6271324;22;19995;-83
2024/01/22 07:42:55;;;;;;;6.90;2.80;;;;;;;;;;6273914;22;19995;-82
2024/01/22 07:45:41;;;;;;;4.50;2.83;;;;;;;;;;6271583;22;19999;-82
2024/01/22 07:48:26;;;;;;;5.35;2.60;;;;;;;;;;6272229;22;20003;-82
2024/01/22 07:51:13;;;;;;;11.15;5.22;;;;;;;;;;6273139;22;19991;-82
2024/01/22 07:53:58;;;;;;;8.15;4.55;;;;;;;;;;6273341;22;20066;-81
2024/01/22 07:56:43;;;;;;;8.60;3.88;;;;;;;;;;6270305;22;20199;-83
2024/01/22 07:59:29;;;;;;;6.60;3.38;;;;;;;;;;6271966;22;20114;-82
2024/01/22 08:02:14;;;;;;;8.43;3.55;;;;;;;;;;6272809;22;20003;-82
2024/01/22 08:04:59;;;;;;;7.95;4.25;;;;;;;;;;6266735;22;20006;-81
2024/01/22 08:07:45;;;;;;;8.00;3.08;;;;;;;;;;6265595;22;20169;-83
2024/01/22 08:10:30;;;;;;;6.45;2.50;;;;;;;;;;6267292;22;20008;-82
2024/01/22 08:13:15;;;;;;;10.95;4.53;;;;;;;;;;6266659;22;20047;-82
2024/01/22 08:16:00;;;;;;;9.15;2.75;;;;;;;;;;6272754;22;20046;-83
2024/01/22 08:18:47;;;;;;;6.20;2.45;;;;;;;;;;6272273;22;20003;-83
2024/01/22 08:21:32;;;;;;;7.93;2.88;;;;;;;;;;6249590;22;20239;-82
2024/01/22 08:24:17;;;;;;;7.78;2.13;;;;;;;;;;6273078;22;20000;-82
2024/01/22 08:27:03;;;;;;;3.08;1.88;;;;;;;;;;6272621;22;20002;-82
2024/01/22 08:29:48;;;;;;;5.20;1.88;;;;;;;;;;6270736;22;20061;-82
2024/01/22 08:32:33;;;;;;;5.00;1.80;;;;;;;;;;6270110;22;19998;-83
2024/01/22 08:35:19;;;;;;;4.55;1.73;;;;;;;;;;6272525;22;20022;-82
2024/01/22 08:38:05;;;;;;;3.08;1.75;;;;;;;;;;6272574;22;20078;-82
2024/01/22 08:40:50;;;;;;;2.28;1.75;;;;;;;;;;6269354;22;20007;-82
2024/01/22 08:43:35;;;;;;;5.40;1.92;;;;;;;;;;6247018;22;20007;-82
2024/01/22 08:46:21;;;;;;;5.55;2.13;;;;;;;;;;6267961;22;20003;-81
2024/01/22 08:49:06;;;;;;;4.28;1.42;;;;;;;;;;6265229;22;19999;-81
2024/01/22 08:51:51;;;;;;;3.05;1.60;;;;;;;;;;6266139;22;20525;-82
2024/01/22 08:54:36;;;;;;;3.10;1.08;;;;;;;;;;6249699;22;20027;-83
2024/01/22 08:57:22;;;;;;;1.60;1.00;;;;;;;;;;6271207;22;20428;-83
2024/01/22 09:00:10;;;;;;;1.67;0.98;;;;;;;;;;6250951;22;20015;-84
2024/01/22 09:02:56;;;;;;;2.25;1.50;;;;;;;;;;6271973;22;20010;-83
2024/01/22 09:05:41;;;;;;;2.70;1.15;;;;;;;;;;6269995;22;19996;-83
2024/01/22 09:08:27;;;;;;;2.95;1.30;;;;;;;;;;6272278;22;20064;-83
2024/01/22 09:11:12;;;;;;;2.40;1.10;;;;;;;;;;6271046;22;20467;-83
2024/01/22 09:13:57;;;;;;;5.15;1.17;;;;;;;;;;6267748;22;19998;-83
2024/01/22 09:16:42;;;;;;;1.35;0.70;;;;;;;;;;6248973;22;19999;-83
2024/01/22 09:19:28;;;;;;;1.27;0.90;;;;;;;;;;6272228;22;19999;-82
2024/01/22 09:22:13;;;;;;;2.83;1.02;;;;;;;;;;6272038;22;20052;-83
2024/01/22 09:24:59;;;;;;;0.85;0.77;;;;;;;;;;6265463;22;20439;-83
2024/01/22 09:27:44;;;;;;;1.85;0.68;;;;;;;;;;6265887;22;20030;-81
2024/01/22 09:30:29;;;;;;;1.50;0.70;;;;;;;;;;6267946;22;19995;-82
2024/01/22 09:33:14;;;;;;;1.73;1.00;;;;;;;;;;6265561;22;19999;-82
2024/01/22 09:36:03;;;;;;;0.88;0.75;;;;;;;;;;6268163;22;20077;-82
2024/01/22 09:38:48;;;;;;;0.82;0.80;;;;;;;;;;6265557;22;20361;-82
2024/01/22 09:41:35;;;;;;;4.38;1.00;;;;;;;;;;6269435;22;20071;-82
2024/01/22 09:44:20;;;;;;;0.93;0.75;;;;;;;;;;6271927;22;20003;-82
2024/01/22 09:47:07;;;;;;;3.53;0.70;;;;;;;;;;6271786;22;20327;-82
2024/01/22 09:49:52;;;;;;;1.75;0.60;;;;;;;;;;6271728;22;19999;-82
2024/01/22 09:52:42;;;;;;;1.25;0.73;;;;;;;;;;6269720;22;20080;-82
2024/01/22 09:55:28;;;;;;;1.60;0.60;;;;;;;;;;6271953;22;19999;-82
2024/01/22 09:58:18;;;;;;;1.20;0.70;;;;;;;;;;6271580;22;20009;-84
2024/01/22 10:01:04;;;;;;;2.58;0.70;;;;;;;;;;6272275;22;20003;-80
2024/01/22 10:03:49;;;;;;;0.82;0.70;;;;;;;;;;6268984;22;20017;-79
2024/01/22 10:06:36;;;;;;;1.13;0.75;;;;;;;;;;6267666;22;20014;-82
2024/01/22 10:09:22;;;;;;;2.22;0.82;;;;;;;;;;6267964;22;20078;-81
2024/01/22 10:12:07;;;;;;;3.70;0.80;;;;;;;;;;6264328;22;20092;-83
2024/01/22 10:14:52;;;;;;;3.90;1.55;;;;;;;;;;6265238;22;20050;-83
2024/01/22 10:17:38;;;;;;;1.13;0.80;;;;;;;;;;6265110;22;20331;-81
2024/01/22 10:20:23;;;;;;;2.03;0.80;;;;;;;;;;6266098;22;20034;-83
2024/01/22 10:23:09;;;;;;;0.85;0.63;;;;;;;;;;6271885;22;19999;-83
2024/01/22 10:26:04;;;;;;;0.95;0.77;;;;;;;;;;6271682;22;19995;-83
2024/01/22 10:28:50;;;;;;;1.23;0.70;;;;;;;;;;6271856;22;20040;-81
2024/01/22 10:31:52;;;;;;;1.00;0.60;;;;;;;;;;6270689;22;20558;-82
2024/01/22 10:34:45;;;;;;;3.50;0.95;;;;;;;;;;6270110;22;20031;-82
2024/01/22 10:37:34;;;;;;;3.42;1.00;;;;;;;;;;6269344;22;19997;-83
2024/01/22 10:40:28;;;;;;;1.25;0.70;;;;;;;;;;6272100;22;20341;-82
2024/01/22 10:43:21;;;;;;;2.08;0.75;;;;;;;;;;6296619;22;20071;-82
2024/01/22 10:46:06;;;;;;;1.20;0.80;;;;;;;;;;6298193;22;19999;-82
2024/01/22 10:48:52;;;;;;;0.80;0.80;;;;;;;;;;6290029;22;20050;-83
2024/01/22 10:51:38;;;;;;;2.33;0.90;;;;;;;;;;6294712;22;19983;-82
2024/01/22 10:54:23;;;;;;;1.23;0.70;;;;;;;;;;6298027;22;19991;-82
2024/01/22 10:57:08;;;;;;;3.15;0.95;;;;;;;;;;6285155;22;20003;-83
2024/01/22 10:59:55;;;;;;;1.30;0.90;;;;;;;;;;6267361;22;19999;-82
2024/01/22 11:02:43;;;;;;;1.63;0.82;;;;;;;;;;6266994;22;20443;-82
2024/01/22 11:05:32;;;;;;;2.40;1.00;;;;;;;;;;6266306;22;20068;-82
2024/01/22 11:08:18;;;;;;;1.92;0.80;;;;;;;;;;6271897;22;20003;-82
2024/01/22 11:11:11;;;;;;;1.88;0.85;;;;;;;;;;6274490;22;20519;-82
2024/01/22 11:14:00;;;;;;;1.75;0.80;;;;;;;;;;6273246;22;20038;-83
2024/01/22 11:16:45;;;;;;;2.38;0.90;;;;;;;;;;6270915;22;20435;-83
2024/01/22 11:19:30;;;;;;;2.55;1.27;;;;;;;;;;6273947;22;20003;-83
2024/01/22 11:22:22;;;;;;;4.20;1.83;;;;;;;;;;6274568;22;20006;-79
2024/01/22 11:25:13;;;;;;;1.40;0.98;;;;;;;;;;6273277;22;20034;-84
2024/01/22 11:28:03;;;;;;;0.95;0.82;;;;;;;;;;6273589;22;20057;-83
2024/01/22 11:30:48;;;;;;;0.85;0.80;;;;;;;;;;6271630;22;20078;-83
2024/01/22 11:33:34;;;;;;;3.15;0.80;;;;;;;;;;6271245;22;20376;-82
2024/01/22 11:36:22;;;;;;;1.27;0.90;;;;;;;;;;6269632;22;20002;-84
2024/01/22 11:39:08;;;;;;;1.52;0.60;;;;;;;;;;6266482;22;20059;-82
2024/01/22 11:41:53;;;;;;;1.15;0.90;;;;;;;;;;6266945;22;20351;-82
2024/01/22 11:44:42;;;;;;;2.28;0.90;;;;;;;;;;6267152;22;20122;-83
2024/01/22 11:47:30;;;;;;;1.80;1.20;;;;;;;;;;6271853;22;20003;-83
2024/01/22 11:50:15;;;;;;;1.80;0.80;;;;;;;;;;6273824;22;20003;-82
2024/01/22 11:53:00;;;;;;;2.42;1.20;;;;;;;;;;6273620;22;20011;-82
2024/01/22 11:55:55;;;;;;;1.15;0.70;;;;;;;;;;6270374;22;20427;-82
2024/01/22 11:58:41;;;;;;;1.00;0.80;;;;;;;;;;6271024;22;20048;-82
2024/01/22 12:01:26;;;;;;;3.08;0.75;;;;;;;;;;6273077;22;20057;-82
2024/01/22 12:04:11;;;;;;;1.48;0.60;;;;;;;;;;6272543;22;20026;-82
2024/01/22 12:06:56;;;;;;;4.03;1.13;;;;;;;;;;6272981;22;19999;-82
2024/01/22 12:09:41;;;;;;;1.02;0.65;;;;;;;;;;6271027;22;20010;-82
2024/01/22 12:12:27;;;;;;;2.15;0.70;;;;;;;;;;6272487;22;20008;-83
2024/01/22 12:15:12;;;;;;;1.02;0.77;;;;;;;;;;6272125;22;20387;-83
2024/01/22 12:17:58;;;;;;;0.88;0.73;;;;;;;;;;6268352;22;20444;-82
2024/01/22 12:20:43;;;;;;;0.77;0.60;;;;;;;;;;6266892;22;20003;-82
2024/01/22 12:23:32;;;;;;;1.85;0.80;;;;;;;;;;6268032;22;20076;-82
2024/01/22 12:26:23;;;;;;;0.75;0.73;;;;;;;;;;6266037;22;20442;-82
2024/01/22 12:29:24;;;;;;;0.90;0.60;;;;;;;;;;6271216;22;20040;-83
2024/01/22 12:32:10;;;;;;;1.70;0.80;;;;;;;;;;6273248;22;19991;-83
2024/01/22 12:34:58;;;;;;;1.33;0.70;;;;;;;;;;6273412;22;20072;-83
2024/01/22 12:37:44;;;;;;;2.17;0.90;;;;;;;;;;6270591;22;20048;-83
2024/01/22 12:40:29;;;;;;;1.02;0.80;;;;;;;;;;6273367;22;20010;-83
2024/01/22 12:43:15;;;;;;;1.70;0.70;;;;;;;;;;6273665;22;20003;-83
2024/01/22 12:46:03;;;;;;;0.70;0.70;;;;;;;;;;6251237;22;20007;-84
2024/01/22 12:48:55;;;;;;;2.67;0.80;;;;;;;;;;6269250;22;20004;-82
2024/01/22 12:51:40;;;;;;;1.65;0.60;;;;;;;;;;6270189;22;20006;-83
2024/01/22 12:54:26;;;;;;;3.58;0.80;;;;;;;;;;6268418;22;19999;-83
2024/01/22 12:57:11;;;;;;;1.42;1.15;;;;;;;;;;6266682;22;20005;-83
2024/01/22 12:59:56;;;;;;;2.17;0.60;;;;;;;;;;6270003;22;20007;-82
2024/01/22 13:02:43;;;;;;;1.67;0.98;;;;;;;;;;6276831;22;20021;-81
2024/01/22 13:05:28;;;;;;;0.60;0.60;;;;;;;;;;6274295;22;20424;-82
2024/01/22 13:08:13;;;;;;;0.80;0.60;;;;;;;;;;6265846;22;20003;-82
2024/01/22 13:10:59;;;;;;;0.70;0.70;;;;;;;;;;6271547;22;20015;-82
2024/01/22 13:13:44;;;;;;;4.22;1.88;;;;;;;;;;6272187;22;20002;-83
2024/01/22 13:16:30;;;;;;;4.15;2.08;;;;;;;;;;6270976;22;19996;-83
2024/01/22 13:19:15;;;;;;;3.65;1.63;;;;;;;;;;6249436;22;20003;-83
2024/01/22 13:22:01;;;;;;;3.65;1.30;;;;;;;;;;6272247;22;20057;-82
2024/01/22 13:24:46;;;;;;;1.25;0.93;;;;;;;;;;6270684;22;20435;-82
2024/01/22 13:27:31;;;;;;;0.75;0.60;;;;;;;;;;6272130;22;20001;-81
2024/01/22 13:30:17;;;;;;;0.50;0.50;;;;;;;;;;6272034;22;20011;-83
2024/01/22 13:33:04;;;;;;;0.80;0.60;;;;;;;;;;6273527;22;20010;-83
2024/01/22 13:35:49;;;;;;;2.75;0.82;;;;;;;;;;6269229;22;20431;-83
2024/01/22 13:38:36;;;;;;;1.83;0.77;;;;;;;;;;6267706;22;20006;-82
2024/01/22 13:41:22;;;;;;;1.52;0.70;;;;;;;;;;6268009;22;20003;-83
2024/01/22 13:44:14;;;;;;;1.98;0.80;;;;;;;;;;6265037;22;20002;-83
2024/01/22 13:46:59;;;;;;;2.42;0.70;;;;;;;;;;6268078;22;19996;-83
2024/01/22 13:49:44;;;;;;;0.55;0.55;;;;;;;;;;6264860;22;20022;-81
2024/01/22 13:52:30;;;;;;;1.08;0.95;;;;;;;;;;6267463;22;20355;-83
2024/01/22 13:55:16;;;;;;;0.88;0.60;;;;;;;;;;6265821;22;20003;-82
2024/01/22 13:58:01;;;;;;;5.10;1.00;;;;;;;;;;6272333;22;20029;-82
2024/01/22 14:00:46;;;;;;;1.88;1.00;;;;;;;;;;6271314;22;20007;-82
2024/01/22 14:03:32;;;;;;;0.93;0.80;;;;;;;;;;6270255;22;20007;-82
2024/01/22 14:06:17;;;;;;;0.88;0.70;;;;;;;;;;6272195;22;20006;-82
2024/01/22 14:09:03;;;;;;;1.88;0.63;;;;;;;;;;6272211;22;20049;-82
2024/01/22 14:11:48;;;;;;;1.65;0.85;;;;;;;;;;6269065;22;20006;-82
2024/01/22 14:14:33;;;;;;;0.82;0.70;;;;;;;;;;6269708;22;20050;-84
2024/01/22 14:17:19;;;;;;;1.05;0.80;;;;;;;;;;6271185;22;20363;-83
2024/01/22 14:20:04;;;;;;;0.95;0.60;;;;;;;;;;6271350;22;19995;-82
2024/01/22 14:22:50;;;;;;;1.77;0.50;;;;;;;;;;6269857;22;20360;-82
2024/01/22 14:25:38;;;;;;;0.68;0.68;;;;;;;;;;6265587;22;20053;-82
2024/01/22 14:28:24;;;;;;;0.75;0.70;;;;;;;;;;6266992;22;20014;-82
2024/01/22 14:31:09;;;;;;;3.47;1.13;;;;;;;;;;6252862;22;19999;-81
2024/01/22 14:33:54;;;;;;;0.80;0.70;;;;;;;;;;6264851;22;20478;-82
2024/01/22 14:36:41;;;;;;;2.28;1.02;;;;;;;;;;6265473;22;20026;-82
2024/01/22 14:39:27;;;;;;;2.25;0.82;;;;;;;;;;6264710;22;20003;-83
2024/01/22 14:42:12;;;;;;;1.02;0.65;;;;;;;;;;6269935;22;19999;-83
2024/01/22 14:44:57;;;;;;;0.85;0.75;;;;;;;;;;6249907;22;20459;-83
2024/01/22 14:47:42;;;;;;;0.80;0.80;;;;;;;;;;6270802;22;20003;-82
2024/01/22 14:50:28;;;;;;;3.05;0.98;;;;;;;;;;6268568;22;20308;-83
2024/01/22 14:53:13;;;;;;;1.13;0.70;;;;;;;;;;6263077;22;20332;-83
2024/01/22 14:55:58;;;;;;;1.10;0.82;;;;;;;;;;6273710;22;20021;-82
2024/01/22 14:58:43;;;;;;;1.08;0.85;;;;;;;;;;6271905;22;20003;-83
2024/01/22 15:01:29;;;;;;;1.15;0.88;;;;;;;;;;6273229;22;20511;-83
2024/01/22 15:04:14;;;;;;;1.70;1.00;;;;;;;;;;6273723;22;20026;-84
2024/01/22 15:07:00;;;;;;;2.75;1.48;;;;;;;;;;6274396;22;20007;-84
2024/01/22 15:09:45;;;;;;;1.27;0.85;;;;;;;;;;6268757;22;20033;-84
2024/01/22 15:12:30;;;;;;;2.42;1.08;;;;;;;;;;6268892;22;20007;-82
2024/01/22 15:15:16;;;;;;;2.47;0.90;;;;;;;;;;6245936;22;20049;-81
2024/01/22 15:18:01;;;;;;;4.03;1.15;;;;;;;;;;6269171;22;20003;-82
2024/01/22 15:20:46;;;;;;;2.03;0.90;;;;;;;;;;6267335;22;20018;-82
2024/01/22 15:23:31;;;;;;;0.75;0.70;;;;;;;;;;6269690;22;20003;-83
2024/01/22 15:26:17;;;;;;;0.95;0.80;;;;;;;;;;6271906;22;20003;-82
2024/01/22 15:29:02;;;;;;;0.98;0.70;;;;;;;;;;6272531;22;20082;-84
2024/01/22 15:31:49;;;;;;;1.08;0.80;;;;;;;;;;6272930;22;20033;-82
2024/01/22 15:34:34;;;;;;;1.20;0.70;;;;;;;;;;6271354;22;19995;-83
2024/01/22 15:37:20;;;;;;;1.05;0.95;;;;;;;;;;6273045;22;20026;-82
2024/01/22 15:40:05;;;;;;;1.02;0.93;;;;;;;;;;6272794;22;19995;-82
2024/01/22 15:42:51;;;;;;;0.70;0.70;;;;;;;;;;6272325;22;20010;-83
2024/01/22 15:45:37;;;;;;;1.02;0.60;;;;;;;;;;6271678;22;20018;-83
2024/01/22 15:48:22;;;;;;;0.77;0.70;;;;;;;;;;6273182;22;20042;-83
2024/01/22 15:51:07;;;;;;;1.85;0.98;;;;;;;;;;6270837;22;19999;-82
2024/01/22 15:53:52;;;;;;;1.90;1.00;;;;;;;;;;6266616;22;20070;-82
2024/01/22 15:56:38;;;;;;;1.90;0.90;;;;;;;;;;6265944;22;19995;-82
2024/01/22 15:59:26;;;;;;;4.97;1.90;;;;;;;;;;6266300;22;20035;-82
2024/01/22 16:02:11;;;;;;;1.75;0.80;;;;;;;;;;6266258;22;19995;-81
2024/01/22 16:04:56;;;;;;;1.23;0.90;;;;;;;;;;6266705;22;20010;-82
2024/01/22 16:07:42;;;;;;;1.85;0.90;;;;;;;;;;6274923;22;19999;-82
2024/01/22 16:10:27;;;;;;;3.72;1.35;;;;;;;;;;6269603;22;20003;-82
2024/01/22 16:13:12;;;;;;;1.83;1.02;;;;;;;;;;6273963;22;20007;-81
2024/01/22 16:15:57;;;;;;;1.48;0.80;;;;;;;;;;6272960;22;20002;-82
2024/01/22 16:18:43;;;;;;;2.38;1.05;;;;;;;;;;6271067;22;20311;-82
2024/01/22 16:21:28;;;;;;;4.50;1.58;;;;;;;;;;6273207;22;20057;-82
2024/01/22 16:24:14;;;;;;;2.08;0.90;;;;;;;;;;6273309;22;20575;-84
2024/01/22 16:26:59;;;;;;;1.60;0.80;;;;;;;;;;6273516;22;19999;-84
2024/01/22 16:29:44;;;;;;;1.30;0.85;;;;;;;;;;6270484;22;20011;-83
2024/01/22 16:32:30;;;;;;;3.55;0.95;;;;;;;;;;6272443;22;20003;-82
2024/01/22 16:35:15;;;;;;;1.63;1.15;;;;;;;;;;6272766;22;20048;-82